Terminal Aerodrome Forecast
Issued by NWS

Home | Current Version | Previous Version | Text Only | Print | Product List | Glossary On
Versions: 1 2 3 4 5 6 7 8 9 10 11 12 13 14 15 16 17 18
000
FTUS43 KMQT 071138 AAA
TAFCMX
TAF AMD
KCMX 071138Z 0712/0812 23017G31KT P6SM -SHSN OVC025
     FM071400 23017G31KT 5SM -SHSN OVC025
     FM071600 23018G32KT 4SM -SHSN OVC025
     FM071800 23020G34KT 2SM -SHSN BLSN OVC015
     FM072100 27020G33KT 1SM -SHSN BLSN OVC020
     FM080400 30017G27KT 1SM -SHSN BLSN OVC015=

USA.gov is the U.S. government's official web portal to all federal, state and local government web resources and services.